Архив погоды в Алатыре

Метеограмма Алатырь
Среда, 28 Июня
Время местн. Темп Ветер Видим Явления Облачность нижн/средн/верх Атм. давл. Влжн Точка росы ВНГО R Сост. почвы Tg s
Напр Скр Прв ур.ст ур.м изм
06:00 +15.5° Ю-З 3 4 50 км - переменная облачность 743 758 +0.5 75% +11° 1 км - Сухая (без трещин) - -
03:00 +11.3° Ю-З 3 3 20 км - ясно 742 758 +0.6 85% +8.9° более 2.5 км - - - -
00:00 +15.2° З 2 5 20 км - ясно 741 757 +0.6 72% +10.2° более 2.5 км - - - -
Вторник, 27 Июня
Время местн. Темп Ветер Видим Явления Облачность нижн/средн/верх Атм. давл. Влжн Точка росы ВНГО R Сост. почвы Tg s
Напр Скр Прв ур.ст ур.м изм
21:00 +17.5° З 3 5 50 км - облачно с прояснениями 741 756 +0.9 65% +10.9° 1 км - - - -
18:00 +23° З 4 6 50 км - переменная облачность 740 755 +0.6 46% +10.7° 1 км - - - -
15:00 +22° Ю-З 6 11 более 50 км небо без изменений {ливневые осадки} переменная облачность 739 755 0 67% +15.7° 1 км - - - -
12:00 +21° З,Ю-З 7 10 50 км - облачно с прояснениями 739 755 +0.5 78% +17.1° 1 км - - - -
09:00 +19.1° Ю-З 6 9 50 км небо без изменений {ливневые осадки} облачно 739 754 0 87% +16.8° 1 км - - - -
06:00 +17.8° Ю-З 5 9 20 км ливневый дождь облачно 739 755 -0.2 90% +16.1° 1 км 1 Влажная (без луж) +14° -
03:00 +18.1° Ю 4 5 20 км - облачно 739 755 -1.2 78% +14.3° - - - - -
00:00 +15.7° Ю 2 3 20 км - ясно 740 756 -0.4 73% +10.9° более 2.5 км - - - -
Понедельник, 26 Июня
Время местн. Темп Ветер Видим Явления Облачность нижн/средн/верх Атм. давл. Влжн Точка росы ВНГО R Сост. почвы Tg s
Напр Скр Прв ур.ст ур.м изм
21:00 +17.8° З,Ю-З 4 9 более 50 км - переменная облачность 741 756 +0.2 67% +11.5° более 2.5 км - - - -
18:00 +23.3° З 5 8 50 км - облачно с прояснениями 740 756 -0.3 51% +12.7° 1 км - - - -
15:00 +22.9° Ю-З 7 11 50 км небо без изменений {ливневые осадки} преимущественно облачно 741 756 -0.8 55% +13.4° 1 км - - - -
12:00 +22.3° Ю-З 6 10 более 50 км - облачно с прояснениями 741 757 -0.4 56% +13.1° 1 км - - - -
09:00 +20.4° Ю-З 5 7 50 км - переменная облачность 742 757 +0.2 62% +12.8° 1 км - - - -
06:00 +16.1° Ю-З 3 5 50 км - облачно с прояснениями 742 758 +0.3 67% +10° 1 км - Сухая (без трещин) - -
03:00 +13.6° Ю 2 3 20 км - облачно 741 757 -0.1 77% +9.7° 600 м - - - -
00:00 +13.7° Ю,Ю-З 2 2 20 км - преимущественно облачно 741 758 +0.2 77% +9.7° 1 км - - - -
Воскресенье, 25 Июня
Время местн. Темп Ветер Видим Явления Облачность нижн/средн/верх Атм. давл. Влжн Точка росы ВНГО R Сост. почвы Tg s
Напр Скр Прв ур.ст ур.м изм
21:00 +15.3° Ю-З 1 2 20 км - преимущественно облачно 741 757 +0.7 64% +8.6° 1 км - - - -
18:00 +19.2° З,С-З 3 10 более 50 км - облачно с прояснениями 741 756 +0.2 44% +6.7° 1 км 0 - - -
15:00 +19.4° З,С-З 6 9 50 км - облачно с прояснениями 740 756 +0.4 39% +5° 1 км - - - -
12:00 +18.8° З,С-З 7 12 50 км - преимущественно облачно 740 756 +0.4 41% +5.3° 1 км - - - -
09:00 +16.9° С-З 4 8 более 50 км - переменная облачность 740 755 +0.3 51% +6.8° 1 км - - - -
06:00 +11.8° З,С-З 3 5 50 км - ясно 739 755 +1.1 74% +7.3° более 2.5 км - Сухая (без трещин) - -
03:00 +9.9° С-З 4 6 20 км - ясно 738 754 +0.7 76% +5.9° более 2.5 км - - - -